sensor_id;sensor_type;location;lat;lon;timestamp;temperature;humidity
7159;DHT22;63175;52.374;13.132;2023-05-10T00:01:11;13.60;65.80
7159;DHT22;63175;52.374;13.132;2023-05-10T00:03:38;13.60;66.00
7159;DHT22;63175;52.374;13.132;2023-05-10T00:06:05;13.60;66.10
7159;DHT22;63175;52.374;13.132;2023-05-10T00:08:32;13.60;66.30
7159;DHT22;63175;52.374;13.132;2023-05-10T00:11:00;13.50;66.40
7159;DHT22;63175;52.374;13.132;2023-05-10T00:13:27;13.50;66.80
7159;DHT22;63175;52.374;13.132;2023-05-10T00:15:54;13.50;66.90
7159;DHT22;63175;52.374;13.132;2023-05-10T00:18:21;13.50;67.20
7159;DHT22;63175;52.374;13.132;2023-05-10T00:20:48;13.50;67.40
7159;DHT22;63175;52.374;13.132;2023-05-10T00:23:15;13.40;67.40
7159;DHT22;63175;52.374;13.132;2023-05-10T00:25:42;13.40;67.60
7159;DHT22;63175;52.374;13.132;2023-05-10T00:28:10;13.40;67.90
7159;DHT22;63175;52.374;13.132;2023-05-10T00:30:37;13.40;68.00
7159;DHT22;63175;52.374;13.132;2023-05-10T00:33:04;13.30;68.30
7159;DHT22;63175;52.374;13.132;2023-05-10T00:35:30;13.30;68.60
7159;DHT22;63175;52.374;13.132;2023-05-10T00:37:57;13.30;68.80
7159;DHT22;63175;52.374;13.132;2023-05-10T00:40:24;13.30;68.80
7159;DHT22;63175;52.374;13.132;2023-05-10T00:42:51;13.20;68.90
7159;DHT22;63175;52.374;13.132;2023-05-10T00:45:19;13.20;69.20
7159;DHT22;63175;52.374;13.132;2023-05-10T00:47:46;13.20;69.30
7159;DHT22;63175;52.374;13.132;2023-05-10T00:50:14;13.10;69.40
7159;DHT22;63175;52.374;13.132;2023-05-10T00:52:41;13.10;69.70
7159;DHT22;63175;52.374;13.132;2023-05-10T00:55:09;13.10;70.00
7159;DHT22;63175;52.374;13.132;2023-05-10T00:57:38;13.00;70.10
7159;DHT22;63175;52.374;13.132;2023-05-10T01:00:06;13.10;70.20
7159;DHT22;63175;52.374;13.132;2023-05-10T01:02:34;13.10;70.50
7159;DHT22;63175;52.374;13.132;2023-05-10T01:05:02;14.20;71.60
7159;DHT22;63175;52.374;13.132;2023-05-10T01:07:30;13.00;70.50
7159;DHT22;63175;52.374;13.132;2023-05-10T01:09:57;13.00;70.80
7159;DHT22;63175;52.374;13.132;2023-05-10T01:12:24;13.00;71.00
7159;DHT22;63175;52.374;13.132;2023-05-10T01:14:51;12.90;71.10
7159;DHT22;63175;52.374;13.132;2023-05-10T01:17:19;12.90;71.30
7159;DHT22;63175;52.374;13.132;2023-05-10T01:19:47;12.90;71.60
7159;DHT22;63175;52.374;13.132;2023-05-10T01:22:32;12.90;71.90
7159;DHT22;63175;52.374;13.132;2023-05-10T01:28:29;12.80;72.30
7159;DHT22;63175;52.374;13.132;2023-05-10T01:31:13;12.70;72.60
7159;DHT22;63175;52.374;13.132;2023-05-10T01:33:47;12.70;72.90
7159;DHT22;63175;52.374;13.132;2023-05-10T01:36:25;12.70;73.20
7159;DHT22;63175;52.374;13.132;2023-05-10T01:38:59;12.60;73.50
7159;DHT22;63175;52.374;13.132;2023-05-10T01:41:36;12.60;73.80
7159;DHT22;63175;52.374;13.132;2023-05-10T01:44:11;12.60;74.10
7159;DHT22;63175;52.374;13.132;2023-05-10T01:46:43;12.50;74.40
7159;DHT22;63175;52.374;13.132;2023-05-10T01:49:20;12.50;74.70
7159;DHT22;63175;52.374;13.132;2023-05-10T01:51:51;12.50;75.00
7159;DHT22;63175;52.374;13.132;2023-05-10T01:54:21;12.40;75.40
7159;DHT22;63175;52.374;13.132;2023-05-10T01:56:55;12.40;75.70
7159;DHT22;63175;52.374;13.132;2023-05-10T01:59:23;12.30;75.90
7159;DHT22;63175;52.374;13.132;2023-05-10T02:01:56;12.30;76.30
7159;DHT22;63175;52.374;13.132;2023-05-10T02:04:25;12.30;76.80
7159;DHT22;63175;52.374;13.132;2023-05-10T02:06:54;12.20;77.00
7159;DHT22;63175;52.374;13.132;2023-05-10T02:09:22;12.20;77.40
7159;DHT22;63175;52.374;13.132;2023-05-10T02:11:50;12.20;77.80
7159;DHT22;63175;52.374;13.132;2023-05-10T02:14:18;12.10;78.00
7159;DHT22;63175;52.374;13.132;2023-05-10T02:16:46;12.10;78.40
7159;DHT22;63175;52.374;13.132;2023-05-10T02:19:14;12.00;78.70
7159;DHT22;63175;52.374;13.132;2023-05-10T02:21:43;12.00;79.10
7159;DHT22;63175;52.374;13.132;2023-05-10T02:24:12;11.90;79.50
7159;DHT22;63175;52.374;13.132;2023-05-10T02:26:40;11.90;80.00
7159;DHT22;63175;52.374;13.132;2023-05-10T02:29:09;11.90;80.50
7159;DHT22;63175;52.374;13.132;2023-05-10T02:31:37;11.80;80.80
7159;DHT22;63175;52.374;13.132;2023-05-10T02:34:06;11.80;81.40
7159;DHT22;63175;52.374;13.132;2023-05-10T02:36:34;11.80;81.80
7159;DHT22;63175;52.374;13.132;2023-05-10T02:39:03;11.70;82.20
7159;DHT22;63175;52.374;13.132;2023-05-10T02:41:35;11.70;82.90
7159;DHT22;63175;52.374;13.132;2023-05-10T02:44:03;11.60;83.30
7159;DHT22;63175;52.374;13.132;2023-05-10T02:46:33;11.60;83.50
7159;DHT22;63175;52.374;13.132;2023-05-10T02:49:00;11.60;83.90
7159;DHT22;63175;52.374;13.132;2023-05-10T02:51:31;11.50;84.20
7159;DHT22;63175;52.374;13.132;2023-05-10T02:54:03;11.50;84.60
7159;DHT22;63175;52.374;13.132;2023-05-10T02:56:35;11.50;85.00
7159;DHT22;63175;52.374;13.132;2023-05-10T02:59:02;11.50;85.20
7159;DHT22;63175;52.374;13.132;2023-05-10T03:01:29;11.50;85.40
7159;DHT22;63175;52.374;13.132;2023-05-10T03:03:56;11.40;85.50
7159;DHT22;63175;52.374;13.132;2023-05-10T03:06:23;11.40;85.90
7159;DHT22;63175;52.374;13.132;2023-05-10T03:08:50;11.40;86.20
7159;DHT22;63175;52.374;13.132;2023-05-10T03:11:28;11.30;86.60
7159;DHT22;63175;52.374;13.132;2023-05-10T03:14:08;11.30;87.00
7159;DHT22;63175;52.374;13.132;2023-05-10T03:16:42;11.40;87.70
7159;DHT22;63175;52.374;13.132;2023-05-10T03:19:16;11.30;87.90
7159;DHT22;63175;52.374;13.132;2023-05-10T03:21:49;11.30;88.30
7159;DHT22;63175;52.374;13.132;2023-05-10T03:24:18;11.30;88.90
7159;DHT22;63175;52.374;13.132;2023-05-10T03:26:49;11.30;89.30
7159;DHT22;63175;52.374;13.132;2023-05-10T03:29:17;11.20;89.60
7159;DHT22;63175;52.374;13.132;2023-05-10T03:31:44;11.20;89.90
7159;DHT22;63175;52.374;13.132;2023-05-10T03:34:11;11.20;90.10
7159;DHT22;63175;52.374;13.132;2023-05-10T03:36:38;11.20;90.30
7159;DHT22;63175;52.374;13.132;2023-05-10T03:39:05;11.20;90.40
7159;DHT22;63175;52.374;13.132;2023-05-10T03:41:31;11.10;90.60
7159;DHT22;63175;52.374;13.132;2023-05-10T03:44:00;11.10;90.80
7159;DHT22;63175;52.374;13.132;2023-05-10T03:46:26;11.10;91.00
7159;DHT22;63175;52.374;13.132;2023-05-10T03:48:53;11.10;91.10
7159;DHT22;63175;52.374;13.132;2023-05-10T03:51:20;11.20;91.30
7159;DHT22;63175;52.374;13.132;2023-05-10T03:53:47;11.10;91.30
7159;DHT22;63175;52.374;13.132;2023-05-10T03:56:14;11.20;91.50
7159;DHT22;63175;52.374;13.132;2023-05-10T03:58:41;11.10;91.60
7159;DHT22;63175;52.374;13.132;2023-05-10T04:01:09;11.10;91.80
7159;DHT22;63175;52.374;13.132;2023-05-10T04:03:36;11.10;92.00
7159;DHT22;63175;52.374;13.132;2023-05-10T04:06:04;11.10;92.00
7159;DHT22;63175;52.374;13.132;2023-05-10T04:08:31;11.10;92.10
7159;DHT22;63175;52.374;13.132;2023-05-10T04:11:05;11.10;92.30
7159;DHT22;63175;52.374;13.132;2023-05-10T04:13:33;11.10;92.40
7159;DHT22;63175;52.374;13.132;2023-05-10T04:16:00;11.10;92.60
7159;DHT22;63175;52.374;13.132;2023-05-10T04:18:28;11.20;92.60
7159;DHT22;63175;52.374;13.132;2023-05-10T04:20:55;11.20;92.70
7159;DHT22;63175;52.374;13.132;2023-05-10T04:23:21;11.10;92.80
7159;DHT22;63175;52.374;13.132;2023-05-10T04:25:48;11.20;92.90
7159;DHT22;63175;52.374;13.132;2023-05-10T04:28:15;11.20;93.10
7159;DHT22;63175;52.374;13.132;2023-05-10T04:30:46;11.20;93.10
7159;DHT22;63175;52.374;13.132;2023-05-10T04:33:12;11.20;93.10
7159;DHT22;63175;52.374;13.132;2023-05-10T04:35:41;11.30;93.20
7159;DHT22;63175;52.374;13.132;2023-05-10T04:38:08;11.30;93.10
7159;DHT22;63175;52.374;13.132;2023-05-10T04:40:35;11.30;93.20
7159;DHT22;63175;52.374;13.132;2023-05-10T04:43:01;11.30;93.20
7159;DHT22;63175;52.374;13.132;2023-05-10T04:45:28;11.30;93.20
7159;DHT22;63175;52.374;13.132;2023-05-10T04:47:58;11.40;93.20
7159;DHT22;63175;52.374;13.132;2023-05-10T04:50:25;11.40;93.30
7159;DHT22;63175;52.374;13.132;2023-05-10T04:52:53;11.50;93.40
7159;DHT22;63175;52.374;13.132;2023-05-10T04:55:20;11.50;93.30
7159;DHT22;63175;52.374;13.132;2023-05-10T04:57:49;11.50;93.30
7159;DHT22;63175;52.374;13.132;2023-05-10T05:00:17;11.60;93.30
7159;DHT22;63175;52.374;13.132;2023-05-10T05:02:44;11.60;93.30
7159;DHT22;63175;52.374;13.132;2023-05-10T05:05:11;11.60;93.30
7159;DHT22;63175;52.374;13.132;2023-05-10T05:07:38;11.70;93.10
7159;DHT22;63175;52.374;13.132;2023-05-10T05:10:07;11.80;93.00
7159;DHT22;63175;52.374;13.132;2023-05-10T05:12:35;11.80;92.90
7159;DHT22;63175;52.374;13.132;2023-05-10T05:15:02;11.80;92.80
7159;DHT22;63175;52.374;13.132;2023-05-10T05:17:30;11.90;92.60
7159;DHT22;63175;52.374;13.132;2023-05-10T05:19:57;11.90;92.40
7159;DHT22;63175;52.374;13.132;2023-05-10T05:22:24;12.00;92.40
7159;DHT22;63175;52.374;13.132;2023-05-10T05:24:53;12.00;92.20
7159;DHT22;63175;52.374;13.132;2023-05-10T05:27:21;12.10;92.30
7159;DHT22;63175;52.374;13.132;2023-05-10T05:29:49;12.10;92.10
7159;DHT22;63175;52.374;13.132;2023-05-10T05:32:16;12.10;92.00
7159;DHT22;63175;52.374;13.132;2023-05-10T05:34:44;12.20;92.10
7159;DHT22;63175;52.374;13.132;2023-05-10T05:37:13;12.20;92.10
7159;DHT22;63175;52.374;13.132;2023-05-10T05:39:40;12.20;91.80
7159;DHT22;63175;52.374;13.132;2023-05-10T05:42:06;12.30;91.90
7159;DHT22;63175;52.374;13.132;2023-05-10T05:44:35;12.40;91.80
7159;DHT22;63175;52.374;13.132;2023-05-10T05:47:02;12.40;91.80
7159;DHT22;63175;52.374;13.132;2023-05-10T05:49:29;12.50;91.80
7159;DHT22;63175;52.374;13.132;2023-05-10T05:51:58;12.50;91.60
7159;DHT22;63175;52.374;13.132;2023-05-10T05:54:26;12.60;91.60
7159;DHT22;63175;52.374;13.132;2023-05-10T05:56:54;12.70;91.50
7159;DHT22;63175;52.374;13.132;2023-05-10T05:59:22;12.70;91.40
7159;DHT22;63175;52.374;13.132;2023-05-10T06:01:51;12.80;91.30
7159;DHT22;63175;52.374;13.132;2023-05-10T06:04:18;12.90;91.10
7159;DHT22;63175;52.374;13.132;2023-05-10T06:06:45;12.90;90.80
7159;DHT22;63175;52.374;13.132;2023-05-10T06:09:12;13.00;90.70
7159;DHT22;63175;52.374;13.132;2023-05-10T06:11:39;13.10;90.60
7159;DHT22;63175;52.374;13.132;2023-05-10T06:14:06;13.20;90.20
7159;DHT22;63175;52.374;13.132;2023-05-10T06:16:33;13.30;89.90
7159;DHT22;63175;52.374;13.132;2023-05-10T06:19:01;13.40;89.30
7159;DHT22;63175;52.374;13.132;2023-05-10T06:21:29;13.50;88.10
7159;DHT22;63175;52.374;13.132;2023-05-10T06:23:56;13.60;87.90
7159;DHT22;63175;52.374;13.132;2023-05-10T06:26:22;13.70;87.20
7159;DHT22;63175;52.374;13.132;2023-05-10T06:28:50;13.80;86.80
7159;DHT22;63175;52.374;13.132;2023-05-10T06:31:17;14.00;87.00
7159;DHT22;63175;52.374;13.132;2023-05-10T06:33:44;14.10;85.30
7159;DHT22;63175;52.374;13.132;2023-05-10T06:36:12;14.30;85.00
7159;DHT22;63175;52.374;13.132;2023-05-10T06:38:39;14.40;83.30
7159;DHT22;63175;52.374;13.132;2023-05-10T06:41:06;14.50;82.90
7159;DHT22;63175;52.374;13.132;2023-05-10T06:43:33;14.70;82.90
7159;DHT22;63175;52.374;13.132;2023-05-10T06:46:00;14.90;81.80
7159;DHT22;63175;52.374;13.132;2023-05-10T06:48:27;15.00;80.60
7159;DHT22;63175;52.374;13.132;2023-05-10T06:50:54;15.10;80.40
7159;DHT22;63175;52.374;13.132;2023-05-10T06:53:22;15.30;79.60
7159;DHT22;63175;52.374;13.132;2023-05-10T06:55:49;15.50;79.10
7159;DHT22;63175;52.374;13.132;2023-05-10T06:58:16;15.60;78.00
7159;DHT22;63175;52.374;13.132;2023-05-10T07:00:43;15.70;76.60
7159;DHT22;63175;52.374;13.132;2023-05-10T07:03:10;15.80;76.60
7159;DHT22;63175;52.374;13.132;2023-05-10T07:05:37;15.90;76.10
7159;DHT22;63175;52.374;13.132;2023-05-10T07:08:05;16.00;76.00
7159;DHT22;63175;52.374;13.132;2023-05-10T07:10:33;16.20;75.40
7159;DHT22;63175;52.374;13.132;2023-05-10T07:13:00;16.30;75.30
7159;DHT22;63175;52.374;13.132;2023-05-10T07:15:27;16.40;73.70
7159;DHT22;63175;52.374;13.132;2023-05-10T07:17:54;16.50;73.30
7159;DHT22;63175;52.374;13.132;2023-05-10T07:20:21;16.70;72.70
7159;DHT22;63175;52.374;13.132;2023-05-10T07:22:47;16.70;71.90
7159;DHT22;63175;52.374;13.132;2023-05-10T07:25:14;16.80;72.40
7159;DHT22;63175;52.374;13.132;2023-05-10T07:27:42;17.00;71.60
7159;DHT22;63175;52.374;13.132;2023-05-10T07:30:10;17.10;71.30
7159;DHT22;63175;52.374;13.132;2023-05-10T07:32:37;17.10;69.90
7159;DHT22;63175;52.374;13.132;2023-05-10T07:35:05;17.20;69.70
7159;DHT22;63175;52.374;13.132;2023-05-10T07:37:32;17.30;69.20
7159;DHT22;63175;52.374;13.132;2023-05-10T07:39:59;17.50;68.90
7159;DHT22;63175;52.374;13.132;2023-05-10T07:42:26;17.60;68.80
7159;DHT22;63175;52.374;13.132;2023-05-10T07:44:54;17.70;68.00
7159;DHT22;63175;52.374;13.132;2023-05-10T07:47:21;17.70;67.90
7159;DHT22;63175;52.374;13.132;2023-05-10T07:49:48;17.80;67.50
7159;DHT22;63175;52.374;13.132;2023-05-10T07:52:15;17.90;67.50
7159;DHT22;63175;52.374;13.132;2023-05-10T07:54:42;18.00;66.20
7159;DHT22;63175;52.374;13.132;2023-05-10T07:57:10;18.10;65.90
7159;DHT22;63175;52.374;13.132;2023-05-10T07:59:36;18.20;65.50
7159;DHT22;63175;52.374;13.132;2023-05-10T08:02:05;18.30;65.50
7159;DHT22;63175;52.374;13.132;2023-05-10T08:04:32;18.40;65.20
7159;DHT22;63175;52.374;13.132;2023-05-10T08:06:59;18.50;64.70
7159;DHT22;63175;52.374;13.132;2023-05-10T08:09:26;18.60;64.00
7159;DHT22;63175;52.374;13.132;2023-05-10T08:11:52;18.80;63.80
7159;DHT22;63175;52.374;13.132;2023-05-10T08:14:19;18.90;63.70
7159;DHT22;63175;52.374;13.132;2023-05-10T08:16:46;19.00;62.90
7159;DHT22;63175;52.374;13.132;2023-05-10T08:19:15;19.00;63.40
7159;DHT22;63175;52.374;13.132;2023-05-10T08:21:44;19.10;64.00
7159;DHT22;63175;52.374;13.132;2023-05-10T08:24:11;19.10;64.30
7159;DHT22;63175;52.374;13.132;2023-05-10T08:26:38;19.00;63.80
7159;DHT22;63175;52.374;13.132;2023-05-10T08:29:05;19.00;65.00
7159;DHT22;63175;52.374;13.132;2023-05-10T08:31:32;19.10;65.40
7159;DHT22;63175;52.374;13.132;2023-05-10T08:33:59;19.20;64.70
7159;DHT22;63175;52.374;13.132;2023-05-10T08:36:27;19.20;64.00
7159;DHT22;63175;52.374;13.132;2023-05-10T08:38:54;19.30;64.50
7159;DHT22;63175;52.374;13.132;2023-05-10T08:41:22;19.40;64.10
7159;DHT22;63175;52.374;13.132;2023-05-10T08:43:50;19.60;64.40
7159;DHT22;63175;52.374;13.132;2023-05-10T08:46:18;19.70;63.40
7159;DHT22;63175;52.374;13.132;2023-05-10T08:48:46;19.70;62.60
7159;DHT22;63175;52.374;13.132;2023-05-10T08:51:14;19.70;62.20
7159;DHT22;63175;52.374;13.132;2023-05-10T08:53:44;19.80;62.90
7159;DHT22;63175;52.374;13.132;2023-05-10T08:56:12;19.90;61.90
7159;DHT22;63175;52.374;13.132;2023-05-10T08:58:39;20.00;61.10
7159;DHT22;63175;52.374;13.132;2023-05-10T09:01:06;20.00;60.80
7159;DHT22;63175;52.374;13.132;2023-05-10T09:03:34;20.00;61.00
7159;DHT22;63175;52.374;13.132;2023-05-10T09:06:01;20.00;61.90
7159;DHT22;63175;52.374;13.132;2023-05-10T09:08:28;20.30;61.50
7159;DHT22;63175;52.374;13.132;2023-05-10T09:10:58;20.50;60.80
7159;DHT22;63175;52.374;13.132;2023-05-10T09:13:25;20.60;59.60
7159;DHT22;63175;52.374;13.132;2023-05-10T09:15:53;20.70;59.40
7159;DHT22;63175;52.374;13.132;2023-05-10T09:18:20;20.80;59.10
7159;DHT22;63175;52.374;13.132;2023-05-10T09:20:46;20.90;58.70
7159;DHT22;63175;52.374;13.132;2023-05-10T09:23:13;20.90;58.40
7159;DHT22;63175;52.374;13.132;2023-05-10T09:25:41;21.00;58.30
7159;DHT22;63175;52.374;13.132;2023-05-10T09:28:10;21.00;58.30
7159;DHT22;63175;52.374;13.132;2023-05-10T09:30:37;21.10;58.10
7159;DHT22;63175;52.374;13.132;2023-05-10T09:33:04;21.30;57.60
7159;DHT22;63175;52.374;13.132;2023-05-10T09:35:32;21.40;57.30
7159;DHT22;63175;52.374;13.132;2023-05-10T09:38:00;21.50;56.60
7159;DHT22;63175;52.374;13.132;2023-05-10T09:40:28;21.50;56.00
7159;DHT22;63175;52.374;13.132;2023-05-10T09:42:56;21.60;56.50
7159;DHT22;63175;52.374;13.132;2023-05-10T09:45:26;21.60;56.20
7159;DHT22;63175;52.374;13.132;2023-05-10T09:47:53;21.70;55.30
7159;DHT22;63175;52.374;13.132;2023-05-10T09:50:21;21.80;55.10
7159;DHT22;63175;52.374;13.132;2023-05-10T09:52:49;21.90;55.00
7159;DHT22;63175;52.374;13.132;2023-05-10T09:55:19;22.10;54.80
7159;DHT22;63175;52.374;13.132;2023-05-10T09:57:46;22.30;53.80
7159;DHT22;63175;52.374;13.132;2023-05-10T10:00:18;22.30;53.60
7159;DHT22;63175;52.374;13.132;2023-05-10T10:02:47;22.40;53.90
7159;DHT22;63175;52.374;13.132;2023-05-10T10:05:15;22.50;53.80
7159;DHT22;63175;52.374;13.132;2023-05-10T10:07:41;22.60;53.70
7159;DHT22;63175;52.374;13.132;2023-05-10T10:10:09;22.60;53.40
7159;DHT22;63175;52.374;13.132;2023-05-10T10:12:39;22.70;53.50
7159;DHT22;63175;52.374;13.132;2023-05-10T10:15:08;22.70;53.00
7159;DHT22;63175;52.374;13.132;2023-05-10T10:17:36;22.80;53.10
7159;DHT22;63175;52.374;13.132;2023-05-10T10:20:07;22.90;52.60
7159;DHT22;63175;52.374;13.132;2023-05-10T10:22:34;22.80;51.20
7159;DHT22;63175;52.374;13.132;2023-05-10T10:25:01;22.80;51.10
7159;DHT22;63175;52.374;13.132;2023-05-10T10:27:36;22.70;50.70
7159;DHT22;63175;52.374;13.132;2023-05-10T10:30:13;22.70;50.60
7159;DHT22;63175;52.374;13.132;2023-05-10T10:33:01;22.70;51.10
7159;DHT22;63175;52.374;13.132;2023-05-10T10:35:34;22.70;51.50
7159;DHT22;63175;52.374;13.132;2023-05-10T10:38:02;22.90;51.30
7159;DHT22;63175;52.374;13.132;2023-05-10T10:40:30;23.00;50.80
7159;DHT22;63175;52.374;13.132;2023-05-10T10:42:58;23.10;50.80
7159;DHT22;63175;52.374;13.132;2023-05-10T10:46:00;23.20;50.40
7159;DHT22;63175;52.374;13.132;2023-05-10T10:48:35;23.10;50.00
7159;DHT22;63175;52.374;13.132;2023-05-10T10:51:03;23.20;50.50
7159;DHT22;63175;52.374;13.132;2023-05-10T10:53:30;23.30;50.20
7159;DHT22;63175;52.374;13.132;2023-05-10T10:56:08;23.30;50.20
7159;DHT22;63175;52.374;13.132;2023-05-10T10:58:36;23.50;50.10
7159;DHT22;63175;52.374;13.132;2023-05-10T11:01:11;23.70;49.90
7159;DHT22;63175;52.374;13.132;2023-05-10T11:03:39;23.70;49.80
7159;DHT22;63175;52.374;13.132;2023-05-10T11:06:07;23.70;49.60
7159;DHT22;63175;52.374;13.132;2023-05-10T11:08:41;23.80;49.60
7159;DHT22;63175;52.374;13.132;2023-05-10T11:11:09;23.80;49.80
7159;DHT22;63175;52.374;13.132;2023-05-10T11:13:40;23.70;50.00
7159;DHT22;63175;52.374;13.132;2023-05-10T11:16:16;23.70;50.10
7159;DHT22;63175;52.374;13.132;2023-05-10T11:19:07;23.80;50.30
7159;DHT22;63175;52.374;13.132;2023-05-10T11:21:46;23.90;49.80
7159;DHT22;63175;52.374;13.132;2023-05-10T11:24:15;24.10;50.20
7159;DHT22;63175;52.374;13.132;2023-05-10T11:26:42;24.40;49.30
7159;DHT22;63175;52.374;13.132;2023-05-10T11:29:09;24.40;48.70
7159;DHT22;63175;52.374;13.132;2023-05-10T11:31:42;24.50;48.40
7159;DHT22;63175;52.374;13.132;2023-05-10T11:34:10;24.40;48.60
7159;DHT22;63175;52.374;13.132;2023-05-10T11:36:39;24.50;49.10
7159;DHT22;63175;52.374;13.132;2023-05-10T11:39:06;24.70;47.90
7159;DHT22;63175;52.374;13.132;2023-05-10T11:41:33;24.80;47.30
7159;DHT22;63175;52.374;13.132;2023-05-10T11:44:00;24.80;47.20
7159;DHT22;63175;52.374;13.132;2023-05-10T11:46:27;24.80;47.40
7159;DHT22;63175;52.374;13.132;2023-05-10T11:48:57;24.80;47.00
7159;DHT22;63175;52.374;13.132;2023-05-10T11:53:56;25.50;45.70
7159;DHT22;63175;52.374;13.132;2023-05-10T11:56:23;26.20;45.40
7159;DHT22;63175;52.374;13.132;2023-05-10T11:58:55;26.50;45.60
7159;DHT22;63175;52.374;13.132;2023-05-10T12:01:23;26.50;44.80
7159;DHT22;63175;52.374;13.132;2023-05-10T12:03:51;26.40;45.00
7159;DHT22;63175;52.374;13.132;2023-05-10T12:06:19;26.30;48.10
7159;DHT22;63175;52.374;13.132;2023-05-10T12:08:48;26.40;48.60
7159;DHT22;63175;52.374;13.132;2023-05-10T12:11:19;26.30;46.30
7159;DHT22;63175;52.374;13.132;2023-05-10T12:13:47;26.30;44.80
7159;DHT22;63175;52.374;13.132;2023-05-10T12:16:17;26.20;45.00
7159;DHT22;63175;52.374;13.132;2023-05-10T12:18:44;26.20;45.30
7159;DHT22;63175;52.374;13.132;2023-05-10T12:21:11;26.10;50.20
7159;DHT22;63175;52.374;13.132;2023-05-10T12:23:39;26.00;46.50
7159;DHT22;63175;52.374;13.132;2023-05-10T12:26:08;26.10;45.00
7159;DHT22;63175;52.374;13.132;2023-05-10T12:28:37;26.10;46.20
7159;DHT22;63175;52.374;13.132;2023-05-10T12:31:06;25.90;44.70
7159;DHT22;63175;52.374;13.132;2023-05-10T12:33:36;26.00;45.10
7159;DHT22;63175;52.374;13.132;2023-05-10T12:36:08;26.10;45.00
7159;DHT22;63175;52.374;13.132;2023-05-10T12:38:36;26.30;44.70
7159;DHT22;63175;52.374;13.132;2023-05-10T12:41:05;26.40;44.00
7159;DHT22;63175;52.374;13.132;2023-05-10T12:43:32;26.40;43.90
7159;DHT22;63175;52.374;13.132;2023-05-10T12:46:06;26.50;44.20
7159;DHT22;63175;52.374;13.132;2023-05-10T12:48:33;26.70;44.30
7159;DHT22;63175;52.374;13.132;2023-05-10T12:51:00;26.90;43.90
7159;DHT22;63175;52.374;13.132;2023-05-10T12:53:27;27.20;43.30
7159;DHT22;63175;52.374;13.132;2023-05-10T12:55:54;27.40;43.10
7159;DHT22;63175;52.374;13.132;2023-05-10T12:58:21;27.50;42.30
7159;DHT22;63175;52.374;13.132;2023-05-10T13:00:48;27.60;42.20
7159;DHT22;63175;52.374;13.132;2023-05-10T13:03:16;27.80;42.40
7159;DHT22;63175;52.374;13.132;2023-05-10T13:05:43;28.10;42.10
7159;DHT22;63175;52.374;13.132;2023-05-10T13:08:10;28.10;41.30
7159;DHT22;63175;52.374;13.132;2023-05-10T13:10:36;28.00;40.90
7159;DHT22;63175;52.374;13.132;2023-05-10T13:13:03;27.90;40.90
7159;DHT22;63175;52.374;13.132;2023-05-10T13:15:30;27.80;41.20
7159;DHT22;63175;52.374;13.132;2023-05-10T13:17:57;28.00;41.20
7159;DHT22;63175;52.374;13.132;2023-05-10T13:20:26;28.20;40.90
7159;DHT22;63175;52.374;13.132;2023-05-10T13:22:53;28.40;40.30
7159;DHT22;63175;52.374;13.132;2023-05-10T13:25:20;28.30;40.10
7159;DHT22;63175;52.374;13.132;2023-05-10T13:27:47;28.30;39.80
7159;DHT22;63175;52.374;13.132;2023-05-10T13:30:14;28.30;40.30
7159;DHT22;63175;52.374;13.132;2023-05-10T13:32:40;28.40;39.90
7159;DHT22;63175;52.374;13.132;2023-05-10T13:35:08;28.50;39.70
7159;DHT22;63175;52.374;13.132;2023-05-10T13:37:36;28.60;39.70
7159;DHT22;63175;52.374;13.132;2023-05-10T13:40:04;28.40;39.60
7159;DHT22;63175;52.374;13.132;2023-05-10T13:42:31;27.90;40.00
7159;DHT22;63175;52.374;13.132;2023-05-10T13:44:59;27.50;40.40
7159;DHT22;63175;52.374;13.132;2023-05-10T13:47:26;27.40;40.50
7159;DHT22;63175;52.374;13.132;2023-05-10T13:49:53;27.30;40.60
7159;DHT22;63175;52.374;13.132;2023-05-10T13:52:20;27.20;40.80
7159;DHT22;63175;52.374;13.132;2023-05-10T13:54:48;27.30;40.60
7159;DHT22;63175;52.374;13.132;2023-05-10T13:57:17;27.30;40.80
7159;DHT22;63175;52.374;13.132;2023-05-10T13:59:44;27.00;40.80
7159;DHT22;63175;52.374;13.132;2023-05-10T14:02:11;26.80;41.10
7159;DHT22;63175;52.374;13.132;2023-05-10T14:04:38;26.40;41.40
7159;DHT22;63175;52.374;13.132;2023-05-10T14:07:05;26.10;41.80
7159;DHT22;63175;52.374;13.132;2023-05-10T14:09:32;25.80;42.80
7159;DHT22;63175;52.374;13.132;2023-05-10T14:12:00;25.90;42.20
7159;DHT22;63175;52.374;13.132;2023-05-10T14:14:27;25.80;42.10
7159;DHT22;63175;52.374;13.132;2023-05-10T14:16:54;25.80;42.60
7159;DHT22;63175;52.374;13.132;2023-05-10T14:19:21;25.90;42.30
7159;DHT22;63175;52.374;13.132;2023-05-10T14:21:48;26.00;42.20
7159;DHT22;63175;52.374;13.132;2023-05-10T14:24:15;25.90;42.20
7159;DHT22;63175;52.374;13.132;2023-05-10T14:26:42;25.70;42.40
7159;DHT22;63175;52.374;13.132;2023-05-10T14:29:10;25.70;42.90
7159;DHT22;63175;52.374;13.132;2023-05-10T14:31:37;25.70;42.60
7159;DHT22;63175;52.374;13.132;2023-05-10T14:34:04;25.60;42.50
7159;DHT22;63175;52.374;13.132;2023-05-10T14:36:31;25.50;42.60
7159;DHT22;63175;52.374;13.132;2023-05-10T14:38:57;25.40;42.30
7159;DHT22;63175;52.374;13.132;2023-05-10T14:41:24;25.20;42.60
7159;DHT22;63175;52.374;13.132;2023-05-10T14:43:52;25.30;42.90
7159;DHT22;63175;52.374;13.132;2023-05-10T14:46:20;25.60;42.90
7159;DHT22;63175;52.374;13.132;2023-05-10T14:48:47;25.90;42.70
7159;DHT22;63175;52.374;13.132;2023-05-10T14:51:14;26.00;42.30
7159;DHT22;63175;52.374;13.132;2023-05-10T14:53:40;25.80;42.20
7159;DHT22;63175;52.374;13.132;2023-05-10T14:56:07;25.60;42.40
7159;DHT22;63175;52.374;13.132;2023-05-10T14:58:34;25.40;42.90
7159;DHT22;63175;52.374;13.132;2023-05-10T15:01:01;25.30;43.10
7159;DHT22;63175;52.374;13.132;2023-05-10T15:03:29;25.10;43.00
7159;DHT22;63175;52.374;13.132;2023-05-10T15:05:56;25.00;43.60
7159;DHT22;63175;52.374;13.132;2023-05-10T15:08:23;24.90;44.00
7159;DHT22;63175;52.374;13.132;2023-05-10T15:10:50;24.70;44.00
7159;DHT22;63175;52.374;13.132;2023-05-10T15:13:17;24.70;44.40
7159;DHT22;63175;52.374;13.132;2023-05-10T15:15:44;24.70;45.50
7159;DHT22;63175;52.374;13.132;2023-05-10T15:18:11;24.70;47.00
7159;DHT22;63175;52.374;13.132;2023-05-10T15:20:39;24.60;48.70
7159;DHT22;63175;52.374;13.132;2023-05-10T15:23:06;24.60;48.50
7159;DHT22;63175;52.374;13.132;2023-05-10T15:25:33;24.70;49.30
7159;DHT22;63175;52.374;13.132;2023-05-10T15:28:02;24.70;51.60
7159;DHT22;63175;52.374;13.132;2023-05-10T15:30:29;24.70;52.70
7159;DHT22;63175;52.374;13.132;2023-05-10T15:32:56;24.70;54.40
7159;DHT22;63175;52.374;13.132;2023-05-10T15:35:23;24.60;55.00
7159;DHT22;63175;52.374;13.132;2023-05-10T15:37:51;24.50;55.10
7159;DHT22;63175;52.374;13.132;2023-05-10T15:40:18;24.50;55.50
7159;DHT22;63175;52.374;13.132;2023-05-10T15:42:45;24.40;56.10